Time;durP1;ratioP1;P1;durP2;ratioP2;P2;SDS_P1;SDS_P2;PMS_P1;PMS_P2;Temp;Humidity;BMP_temperature;BMP_pressure;BME280_temperature;BME280_humidity;BME280_pressure;Samples;Min_cycle;Max_cycle;Signal;HPM_P1;HPM_P2
2024/03/21 00:01:12;;;;;;;;;;;13.70;99.90;;;;;;5038139;28;20022;-77
2024/03/21 00:03:38;;;;;;;;;;;13.70;99.90;;;;;;5041161;28;19924;-76
2024/03/21 00:06:04;;;;;;;;;;;13.70;99.90;;;;;;5039567;28;19927;-76
2024/03/21 00:08:31;;;;;;;;;;;13.70;99.90;;;;;;5039816;28;19928;-77
2024/03/21 00:10:57;;;;;;;;;;;13.70;99.90;;;;;;5066243;28;19944;-77
2024/03/21 00:13:23;;;;;;;;;;;13.70;99.90;;;;;;5028920;28;20274;-77
2024/03/21 00:15:48;;;;;;;;;;;13.60;99.90;;;;;;5037723;28;20337;-77
2024/03/21 00:18:15;;;;;;;;;;;13.60;99.90;;;;;;5021937;28;19943;-77
2024/03/21 00:20:40;;;;;;;;;;;13.60;99.90;;;;;;5009049;28;19917;-77
2024/03/21 00:23:06;;;;;;;;;;;13.60;99.90;;;;;;5046269;28;19952;-77
2024/03/21 00:25:33;;;;;;;;;;;13.60;99.90;;;;;;5041539;28;19952;-77
2024/03/21 00:27:59;;;;;;;;;;;13.50;99.90;;;;;;5039413;28;19913;-77
2024/03/21 00:30:25;;;;;;;;;;;13.50;99.90;;;;;;5052676;28;19917;-77
2024/03/21 00:32:50;;;;;;;;;;;13.50;99.90;;;;;;5042594;28;20199;-77
2024/03/21 00:35:17;;;;;;;;;;;13.50;99.90;;;;;;5067946;28;19913;-77
2024/03/21 00:37:43;;;;;;;;;;;13.50;99.90;;;;;;5051959;28;19933;-77
2024/03/21 00:40:09;;;;;;;;;;;13.40;99.90;;;;;;5007560;28;19927;-77
2024/03/21 00:42:39;;;;;;;;;;;13.40;99.90;;;;;;5041919;28;20314;-77
2024/03/21 00:45:06;;;;;;;;;;;13.40;99.90;;;;;;5060184;28;19917;-77
2024/03/21 00:47:31;;;;;;;;;;;13.40;99.90;;;;;;5041835;28;19921;-77
2024/03/21 00:49:57;;;;;;;;;;;13.40;99.90;;;;;;5005790;28;20401;-77
2024/03/21 00:52:23;;;;;;;;;;;13.40;99.90;;;;;;5005795;28;19977;-77
2024/03/21 00:54:48;;;;;;;;;;;13.40;99.90;;;;;;5048233;28;19917;-77
2024/03/21 00:57:14;;;;;;;;;;;13.30;99.90;;;;;;5061107;28;19913;-77
2024/03/21 00:59:40;;;;;;;;;;;13.30;99.90;;;;;;5051841;28;20034;-77
2024/03/21 01:02:07;;;;;;;;;;;13.20;99.90;;;;;;5050212;28;19931;-77
2024/03/21 01:04:34;;;;;;;;;;;13.20;99.90;;;;;;5025916;28;19917;-77
2024/03/21 01:07:00;;;;;;;;;;;13.10;99.90;;;;;;5022261;28;19925;-77
2024/03/21 01:09:29;;;;;;;;;;;13.10;99.90;;;;;;5021218;28;22081;-77
2024/03/21 01:11:57;;;;;;;;;;;13.00;99.90;;;;;;5020086;28;20012;-78
2024/03/21 01:14:23;;;;;;;;;;;13.00;99.90;;;;;;5055168;28;19921;-78
2024/03/21 01:16:49;;;;;;;;;;;13.00;99.90;;;;;;5044311;28;19924;-77
2024/03/21 01:19:14;;;;;;;;;;;12.90;99.90;;;;;;5041425;28;19960;-77
2024/03/21 01:21:40;;;;;;;;;;;12.90;99.90;;;;;;5022642;28;19928;-77
2024/03/21 01:24:05;;;;;;;;;;;12.90;99.90;;;;;;5057072;28;19928;-78
2024/03/21 01:26:31;;;;;;;;;;;12.80;99.90;;;;;;5032777;28;19979;-78
2024/03/21 01:28:57;;;;;;;;;;;12.80;99.90;;;;;;5027669;28;19918;-77
2024/03/21 01:31:22;;;;;;;;;;;12.80;99.90;;;;;;5065008;28;19944;-78
2024/03/21 01:33:49;;;;;;;;;;;12.80;99.90;;;;;;5057951;28;20290;-78
2024/03/21 01:36:15;;;;;;;;;;;12.80;99.90;;;;;;5041459;28;20245;-78
2024/03/21 01:38:40;;;;;;;;;;;12.70;99.90;;;;;;5071242;28;19913;-77
2024/03/21 01:41:06;;;;;;;;;;;12.70;99.90;;;;;;5054388;28;19917;-77
2024/03/21 01:43:32;;;;;;;;;;;12.60;99.90;;;;;;5030647;28;19978;-77
2024/03/21 01:45:57;;;;;;;;;;;12.60;99.90;;;;;;5054952;28;19924;-77
2024/03/21 01:48:23;;;;;;;;;;;12.50;99.90;;;;;;5038185;28;20619;-77
2024/03/21 01:50:49;;;;;;;;;;;12.60;99.90;;;;;;5021718;28;19913;-77
2024/03/21 01:53:15;;;;;;;;;;;12.50;99.90;;;;;;5008402;28;19921;-77
2024/03/21 01:55:40;;;;;;;;;;;12.60;99.90;;;;;;5036773;28;20338;-77
2024/03/21 01:58:06;;;;;;;;;;;12.60;99.90;;;;;;5034524;28;19917;-77
2024/03/21 02:00:32;;;;;;;;;;;12.60;99.90;;;;;;5056015;28;19928;-77
2024/03/21 02:02:57;;;;;;;;;;;12.60;99.90;;;;;;5031482;28;19918;-77
2024/03/21 02:05:23;;;;;;;;;;;12.60;99.90;;;;;;5055389;28;19927;-77
2024/03/21 02:07:51;;;;;;;;;;;12.60;99.90;;;;;;5030323;28;19917;-77
2024/03/21 02:10:18;;;;;;;;;;;12.50;99.90;;;;;;5038528;28;19917;-78
2024/03/21 02:12:46;;;;;;;;;;;12.60;99.90;;;;;;5021589;28;19920;-77
2024/03/21 02:15:12;;;;;;;;;;;12.50;99.90;;;;;;5049377;28;20296;-77
2024/03/21 02:17:37;;;;;;;;;;;12.50;99.90;;;;;;5063467;28;19921;-77
2024/03/21 02:20:03;;;;;;;;;;;12.50;99.90;;;;;;5010013;28;19914;-77
2024/03/21 02:22:37;;;;;;;;;;;12.50;99.90;;;;;;5042556;28;20215;-77
2024/03/21 02:25:04;;;;;;;;;;;12.50;99.90;;;;;;5036092;28;20349;-77
2024/03/21 02:27:31;;;;;;;;;;;12.50;99.90;;;;;;5057673;28;19921;-77
2024/03/21 02:29:57;;;;;;;;;;;12.50;99.90;;;;;;5045145;28;19925;-77
2024/03/21 02:32:23;;;;;;;;;;;12.40;99.90;;;;;;5056809;28;19997;-76
2024/03/21 02:34:48;;;;;;;;;;;12.40;99.90;;;;;;5065605;28;19913;-76
2024/03/21 02:37:14;;;;;;;;;;;12.40;99.90;;;;;;5035260;28;20020;-76
2024/03/21 02:39:41;;;;;;;;;;;12.40;99.90;;;;;;5017235;28;19913;-78
2024/03/21 02:42:08;;;;;;;;;;;12.30;99.90;;;;;;5065303;28;19913;-77
2024/03/21 02:44:34;;;;;;;;;;;12.30;99.90;;;;;;5088415;28;19917;-77
2024/03/21 02:47:01;;;;;;;;;;;12.30;99.90;;;;;;5033771;28;19932;-77
2024/03/21 02:49:26;;;;;;;;;;;12.20;99.90;;;;;;5044969;28;19921;-77
2024/03/21 02:51:53;;;;;;;;;;;12.30;99.90;;;;;;5033878;28;19913;-76
2024/03/21 02:54:19;;;;;;;;;;;12.20;99.90;;;;;;5021688;28;19971;-77
2024/03/21 02:56:44;;;;;;;;;;;12.20;99.90;;;;;;5038209;28;19917;-77
2024/03/21 02:59:10;;;;;;;;;;;12.10;99.90;;;;;;5057168;28;20223;-77
2024/03/21 03:01:36;;;;;;;;;;;12.10;99.90;;;;;;5015723;28;19925;-77
2024/03/21 03:04:02;;;;;;;;;;;12.20;99.90;;;;;;5029476;28;19917;-76
2024/03/21 03:06:28;;;;;;;;;;;12.20;99.90;;;;;;5047462;28;19956;-76
2024/03/21 03:08:54;;;;;;;;;;;12.20;99.90;;;;;;5084829;28;19950;-77
2024/03/21 03:11:19;;;;;;;;;;;12.20;99.90;;;;;;5040257;28;19979;-77
2024/03/21 03:13:45;;;;;;;;;;;12.20;99.90;;;;;;5047670;28;20308;-78
2024/03/21 03:16:10;;;;;;;;;;;12.20;99.90;;;;;;5021382;28;19992;-77
2024/03/21 03:18:36;;;;;;;;;;;12.20;99.90;;;;;;5055827;28;19921;-76
2024/03/21 03:21:02;;;;;;;;;;;12.20;99.90;;;;;;5054354;28;19963;-77
2024/03/21 03:23:28;;;;;;;;;;;12.20;99.90;;;;;;5049503;28;19917;-76
2024/03/21 03:25:53;;;;;;;;;;;12.20;99.90;;;;;;5038210;28;19987;-77
2024/03/21 03:28:19;;;;;;;;;;;12.20;99.90;;;;;;5024323;28;19924;-77
2024/03/21 03:30:45;;;;;;;;;;;12.20;99.90;;;;;;5070602;28;19956;-77
2024/03/21 03:35:55;;;;;;;;;;;12.20;99.90;;;;;;5011470;28;19974;-77
2024/03/21 03:38:21;;;;;;;;;;;12.20;99.90;;;;;;5053370;28;19955;-77
2024/03/21 03:40:47;;;;;;;;;;;12.20;99.90;;;;;;5016648;28;19917;-77
2024/03/21 03:43:13;;;;;;;;;;;12.10;99.90;;;;;;5064468;28;19924;-77
2024/03/21 03:45:39;;;;;;;;;;;12.10;99.90;;;;;;5042726;28;20373;-77
2024/03/21 03:48:05;;;;;;;;;;;12.10;99.90;;;;;;5052647;28;19917;-77
2024/03/21 03:50:30;;;;;;;;;;;12.10;99.90;;;;;;5046655;28;19917;-77
2024/03/21 03:52:56;;;;;;;;;;;12.10;99.90;;;;;;5052706;28;19917;-76
2024/03/21 03:55:22;;;;;;;;;;;12.10;99.90;;;;;;5037569;28;19920;-77
2024/03/21 03:57:47;;;;;;;;;;;12.10;99.90;;;;;;5065796;28;20450;-77
2024/03/21 04:00:13;;;;;;;;;;;12.10;99.90;;;;;;5026695;28;19925;-77
2024/03/21 04:02:41;;;;;;;;;;;12.00;99.90;;;;;;5036644;28;19971;-77
2024/03/21 04:05:07;;;;;;;;;;;12.00;99.90;;;;;;5035707;28;20259;-77
2024/03/21 04:07:33;;;;;;;;;;;12.00;99.90;;;;;;5079524;28;19914;-77
2024/03/21 04:10:00;;;;;;;;;;;11.90;99.90;;;;;;5041772;28;19918;-77
2024/03/21 04:12:27;;;;;;;;;;;11.90;99.90;;;;;;5038391;28;19927;-77
2024/03/21 04:14:53;;;;;;;;;;;11.80;99.90;;;;;;5029114;28;19917;-77
2024/03/21 04:17:19;;;;;;;;;;;11.80;99.90;;;;;;5038530;28;19917;-77
2024/03/21 04:19:45;;;;;;;;;;;11.80;99.90;;;;;;5036240;28;19924;-77
2024/03/21 04:22:10;;;;;;;;;;;11.80;99.90;;;;;;5036336;28;19966;-77
2024/03/21 04:24:41;;;;;;;;;;;11.70;99.90;;;;;;5042291;28;19932;-77
2024/03/21 04:27:07;;;;;;;;;;;11.80;99.90;;;;;;5046173;28;20249;-77
2024/03/21 04:29:32;;;;;;;;;;;11.70;99.90;;;;;;5056640;28;19912;-77
2024/03/21 04:31:58;;;;;;;;;;;11.70;99.90;;;;;;5054705;28;20416;-77
2024/03/21 04:34:24;;;;;;;;;;;11.70;99.90;;;;;;5028015;28;19926;-77
2024/03/21 04:36:50;;;;;;;;;;;11.70;99.90;;;;;;5033346;28;20012;-77
2024/03/21 04:39:16;;;;;;;;;;;11.70;99.90;;;;;;5050062;28;19922;-77
2024/03/21 04:41:47;;;;;;;;;;;11.70;99.90;;;;;;5050152;28;19999;-76
2024/03/21 04:44:12;;;;;;;;;;;11.70;99.90;;;;;;5067834;28;20334;-77
2024/03/21 04:46:38;;;;;;;;;;;11.60;99.90;;;;;;5020080;28;19917;-77
2024/03/21 04:49:04;;;;;;;;;;;11.60;99.90;;;;;;5038935;28;19921;-77
2024/03/21 04:51:30;;;;;;;;;;;11.60;99.90;;;;;;5037307;28;20257;-77
2024/03/21 04:53:55;;;;;;;;;;;11.60;99.90;;;;;;5062404;28;19913;-77
2024/03/21 04:56:21;;;;;;;;;;;11.60;99.90;;;;;;5029200;28;19917;-77
2024/03/21 04:58:48;;;;;;;;;;;11.60;99.90;;;;;;5039902;28;19932;-75
2024/03/21 05:01:13;;;;;;;;;;;11.70;99.90;;;;;;5057502;28;20483;-75
2024/03/21 05:03:39;;;;;;;;;;;11.70;99.90;;;;;;5021986;28;19917;-75
2024/03/21 05:06:04;;;;;;;;;;;11.70;99.90;;;;;;5036244;28;19913;-75
2024/03/21 05:08:30;;;;;;;;;;;11.80;99.90;;;;;;5065435;28;19917;-75
2024/03/21 05:10:56;;;;;;;;;;;11.80;99.90;;;;;;5022590;28;19921;-75
2024/03/21 05:13:22;;;;;;;;;;;11.80;99.90;;;;;;5015743;28;19932;-75
2024/03/21 05:15:48;;;;;;;;;;;11.80;99.90;;;;;;5032657;28;19923;-75
2024/03/21 05:18:14;;;;;;;;;;;11.80;99.90;;;;;;5034485;28;20309;-75
2024/03/21 05:20:39;;;;;;;;;;;11.80;99.90;;;;;;5045685;28;19927;-75
2024/03/21 05:23:05;;;;;;;;;;;11.80;99.90;;;;;;5033618;28;19922;-75
2024/03/21 05:25:30;;;;;;;;;;;11.80;99.90;;;;;;5041211;28;19947;-76
2024/03/21 05:27:56;;;;;;;;;;;11.80;99.90;;;;;;5036393;28;19979;-76
2024/03/21 05:30:22;;;;;;;;;;;11.80;99.90;;;;;;5029375;28;20164;-77
2024/03/21 05:32:48;;;;;;;;;;;11.80;99.90;;;;;;5034099;28;20000;-76
2024/03/21 05:35:14;;;;;;;;;;;11.80;99.90;;;;;;5016931;28;20000;-76
2024/03/21 05:37:39;;;;;;;;;;;11.80;99.90;;;;;;5065315;28;19917;-76
2024/03/21 05:40:05;;;;;;;;;;;11.80;99.90;;;;;;5061726;28;19920;-76
2024/03/21 05:42:31;;;;;;;;;;;11.80;99.90;;;;;;5052842;28;19928;-76
2024/03/21 05:44:56;;;;;;;;;;;11.80;99.90;;;;;;5049037;28;19988;-76
2024/03/21 05:47:23;;;;;;;;;;;11.80;99.90;;;;;;5044158;28;19917;-75
2024/03/21 05:49:49;;;;;;;;;;;11.80;99.90;;;;;;5069568;28;19951;-75
2024/03/21 05:52:16;;;;;;;;;;;11.80;99.90;;;;;;5035259;28;19957;-75
2024/03/21 05:54:42;;;;;;;;;;;11.80;99.90;;;;;;5037509;28;19924;-75
2024/03/21 05:57:08;;;;;;;;;;;11.80;99.90;;;;;;5031275;28;20007;-75
2024/03/21 05:59:33;;;;;;;;;;;11.80;99.90;;;;;;5020212;28;20636;-75
2024/03/21 06:01:59;;;;;;;;;;;11.70;99.90;;;;;;5041357;28;20434;-75
2024/03/21 06:04:24;;;;;;;;;;;11.70;99.90;;;;;;5015905;28;19948;-75
2024/03/21 06:06:50;;;;;;;;;;;11.70;99.90;;;;;;5029150;28;20607;-75
2024/03/21 06:09:20;;;;;;;;;;;11.80;99.90;;;;;;5032189;28;20569;-76
2024/03/21 06:11:45;;;;;;;;;;;11.80;99.90;;;;;;5032202;28;19986;-76
2024/03/21 06:14:11;;;;;;;;;;;11.80;99.90;;;;;;5032365;28;20292;-76
2024/03/21 06:16:36;;;;;;;;;;;11.80;99.90;;;;;;5001255;28;19925;-76
2024/03/21 06:19:03;;;;;;;;;;;11.80;99.90;;;;;;5020186;28;19913;-76
2024/03/21 06:21:28;;;;;;;;;;;11.80;99.90;;;;;;5039440;28;19913;-76
2024/03/21 06:23:54;;;;;;;;;;;11.80;99.90;;;;;;5042114;28;19921;-76
2024/03/21 06:26:20;;;;;;;;;;;11.80;99.90;;;;;;5037215;28;19928;-76
2024/03/21 06:28:45;;;;;;;;;;;11.80;99.90;;;;;;5032591;28;19925;-76
2024/03/21 06:31:11;;;;;;;;;;;11.70;99.90;;;;;;5026032;28;19913;-76
2024/03/21 06:33:38;;;;;;;;;;;11.70;99.90;;;;;;5030669;28;19928;-76
2024/03/21 06:36:04;;;;;;;;;;;11.80;99.90;;;;;;5048415;28;19913;-75
2024/03/21 06:38:30;;;;;;;;;;;11.80;99.90;;;;;;5036252;28;19913;-75
2024/03/21 06:40:55;;;;;;;;;;;11.90;99.90;;;;;;5056093;28;19917;-76
2024/03/21 06:43:21;;;;;;;;;;;11.80;99.90;;;;;;5055427;28;19917;-75
2024/03/21 06:45:56;;;;;;;;;;;11.90;99.90;;;;;;5053685;28;20262;-76
2024/03/21 06:48:22;;;;;;;;;;;11.80;99.90;;;;;;5008530;28;19926;-76
2024/03/21 06:50:47;;;;;;;;;;;11.80;99.90;;;;;;5016407;28;19917;-76
2024/03/21 06:53:13;;;;;;;;;;;11.80;99.90;;;;;;5015256;28;19921;-76
2024/03/21 06:55:39;;;;;;;;;;;11.80;99.90;;;;;;5035213;28;20325;-76
2024/03/21 06:58:04;;;;;;;;;;;11.80;99.90;;;;;;5034271;28;19923;-75
2024/03/21 07:00:30;;;;;;;;;;;11.70;99.90;;;;;;5068668;28;20530;-75
2024/03/21 07:02:55;;;;;;;;;;;11.70;99.90;;;;;;5034541;28;19972;-75
2024/03/21 07:05:23;;;;;;;;;;;11.60;99.90;;;;;;5066560;28;19920;-75
2024/03/21 07:07:49;;;;;;;;;;;11.60;99.90;;;;;;5043630;28;20456;-75
2024/03/21 07:10:15;;;;;;;;;;;11.50;99.90;;;;;;5043031;28;19920;-78
2024/03/21 07:12:41;;;;;;;;;;;11.50;99.90;;;;;;5042262;28;19925;-78
2024/03/21 07:15:07;;;;;;;;;;;11.50;99.90;;;;;;5055386;28;19920;-78
2024/03/21 07:17:35;;;;;;;;;;;11.50;99.90;;;;;;5073659;28;19913;-78
2024/03/21 07:20:01;;;;;;;;;;;11.50;99.90;;;;;;5053503;28;19913;-78
2024/03/21 07:22:26;;;;;;;;;;;11.50;99.90;;;;;;5042750;28;19927;-78
2024/03/21 07:24:52;;;;;;;;;;;11.60;99.90;;;;;;5070224;28;19952;-78
2024/03/21 07:27:18;;;;;;;;;;;11.50;99.90;;;;;;5074758;28;20011;-77
2024/03/21 07:29:44;;;;;;;;;;;11.50;99.90;;;;;;5067838;28;20028;-77
2024/03/21 07:32:09;;;;;;;;;;;11.50;99.90;;;;;;5055333;28;19917;-76
2024/03/21 07:34:35;;;;;;;;;;;11.60;99.90;;;;;;5033392;28;19913;-78
2024/03/21 07:37:01;;;;;;;;;;;11.60;99.90;;;;;;5063208;28;19917;-77
2024/03/21 07:39:26;;;;;;;;;;;11.60;99.90;;;;;;5006891;28;19922;-76
2024/03/21 07:41:52;;;;;;;;;;;11.60;99.90;;;;;;5025164;28;19924;-77
2024/03/21 07:44:18;;;;;;;;;;;11.70;99.90;;;;;;5021831;28;19979;-77
2024/03/21 07:46:45;;;;;;;;;;;11.70;99.90;;;;;;5005119;28;19924;-77
2024/03/21 07:49:11;;;;;;;;;;;11.70;99.90;;;;;;5002786;28;20000;-76
2024/03/21 07:51:36;;;;;;;;;;;11.70;99.90;;;;;;5018912;28;19956;-76
2024/03/21 07:54:02;;;;;;;;;;;11.70;99.90;;;;;;5036701;28;19913;-77
2024/03/21 07:56:28;;;;;;;;;;;11.70;99.90;;;;;;5043565;28;19928;-76
2024/03/21 07:58:53;;;;;;;;;;;11.70;99.90;;;;;;5066424;28;19928;-77
2024/03/21 08:01:21;;;;;;;;;;;11.70;99.90;;;;;;5048833;28;20356;-76
2024/03/21 08:03:47;;;;;;;;;;;11.80;99.90;;;;;;5065231;28;20207;-76
2024/03/21 08:06:13;;;;;;;;;;;11.80;99.90;;;;;;5069468;28;19992;-78
2024/03/21 08:08:38;;;;;;;;;;;11.80;99.90;;;;;;5028366;28;20249;-76
2024/03/21 08:11:04;;;;;;;;;;;11.80;99.90;;;;;;5061207;28;19925;-77
2024/03/21 08:13:30;;;;;;;;;;;11.70;99.90;;;;;;5038927;28;19966;-77
2024/03/21 08:15:56;;;;;;;;;;;11.80;99.90;;;;;;5031323;28;20007;-77
2024/03/21 08:18:22;;;;;;;;;;;11.80;99.90;;;;;;5040371;28;19913;-77
2024/03/21 08:20:48;;;;;;;;;;;11.80;99.90;;;;;;5051326;28;19917;-77
2024/03/21 08:23:14;;;;;;;;;;;11.80;99.90;;;;;;5038024;28;19963;-77
2024/03/21 08:25:40;;;;;;;;;;;11.70;99.90;;;;;;5005533;28;19980;-76
2024/03/21 08:28:06;;;;;;;;;;;11.70;99.90;;;;;;5021547;28;20380;-76
2024/03/21 08:30:32;;;;;;;;;;;11.80;99.90;;;;;;5040107;28;20016;-76
2024/03/21 08:32:57;;;;;;;;;;;11.70;99.90;;;;;;5036173;28;19952;-76
2024/03/21 08:35:23;;;;;;;;;;;11.70;99.90;;;;;;5073041;28;19947;-77
2024/03/21 08:37:49;;;;;;;;;;;11.70;99.90;;;;;;5038285;28;19979;-77
2024/03/21 08:40:14;;;;;;;;;;;11.70;99.90;;;;;;5031641;28;19912;-76
2024/03/21 08:42:40;;;;;;;;;;;11.70;99.90;;;;;;5060305;28;19917;-76
2024/03/21 08:45:09;;;;;;;;;;;11.70;99.90;;;;;;5003850;28;19920;-75
2024/03/21 08:47:38;;;;;;;;;;;11.80;99.90;;;;;;5052794;28;20016;-76
2024/03/21 08:50:05;;;;;;;;;;;11.80;99.90;;;;;;5030962;28;20602;-76
2024/03/21 08:52:30;;;;;;;;;;;11.90;99.90;;;;;;5044352;28;19927;-78
2024/03/21 08:54:56;;;;;;;;;;;11.80;99.90;;;;;;5069298;28;19929;-76
2024/03/21 08:57:22;;;;;;;;;;;11.80;99.90;;;;;;5038385;28;19914;-76
2024/03/21 08:59:49;;;;;;;;;;;11.90;99.90;;;;;;5022000;28;20249;-77
2024/03/21 09:02:14;;;;;;;;;;;11.90;99.90;;;;;;5058461;28;19924;-78
2024/03/21 09:04:40;;;;;;;;;;;12.00;99.90;;;;;;5073048;28;19921;-76
2024/03/21 09:07:06;;;;;;;;;;;12.00;99.90;;;;;;5046376;28;19951;-77
2024/03/21 09:09:34;;;;;;;;;;;12.00;99.90;;;;;;5035423;28;19917;-77
2024/03/21 09:12:00;;;;;;;;;;;12.10;99.90;;;;;;5054998;28;19921;-77
2024/03/21 09:14:26;;;;;;;;;;;12.10;99.90;;;;;;5036125;28;19914;-77
2024/03/21 09:16:52;;;;;;;;;;;12.10;99.90;;;;;;5027121;28;19917;-77
2024/03/21 09:19:18;;;;;;;;;;;12.10;99.90;;;;;;5037601;28;20000;-77
2024/03/21 09:21:45;;;;;;;;;;;12.00;99.90;;;;;;5057173;28;19916;-77
2024/03/21 09:24:11;;;;;;;;;;;11.80;99.90;;;;;;5064541;28;19924;-77
2024/03/21 09:26:38;;;;;;;;;;;11.50;99.90;;;;;;5043765;28;19921;-77
2024/03/21 09:29:10;;;;;;;;;;;11.40;99.90;;;;;;5075251;28;19913;-77
2024/03/21 09:31:36;;;;;;;;;;;11.30;99.90;;;;;;5054423;28;19913;-76
2024/03/21 09:34:02;;;;;;;;;;;11.20;99.90;;;;;;5057683;28;19947;-77
2024/03/21 09:36:28;;;;;;;;;;;11.10;99.90;;;;;;5039917;28;20249;-77
2024/03/21 09:38:54;;;;;;;;;;;10.80;99.90;;;;;;5053169;28;20248;-77
2024/03/21 09:41:20;;;;;;;;;;;10.60;99.90;;;;;;5054372;28;19999;-77
2024/03/21 09:43:45;;;;;;;;;;;10.50;99.90;;;;;;5072555;28;20305;-76
2024/03/21 09:46:15;;;;;;;;;;;10.40;99.90;;;;;;5079249;28;19956;-76
2024/03/21 09:48:41;;;;;;;;;;;10.40;99.90;;;;;;5054162;28;19928;-78
2024/03/21 09:51:11;;;;;;;;;;;10.50;99.90;;;;;;5034944;28;19953;-77
2024/03/21 09:53:36;;;;;;;;;;;10.60;99.90;;;;;;5051184;28;19921;-78
2024/03/21 09:56:02;;;;;;;;;;;10.60;99.90;;;;;;5060904;28;19924;-77
2024/03/21 09:58:30;;;;;;;;;;;10.60;99.90;;;;;;5072140;28;19912;-77
2024/03/21 10:00:57;;;;;;;;;;;10.50;99.90;;;;;;5071379;28;20249;-76
2024/03/21 10:03:23;;;;;;;;;;;10.60;99.90;;;;;;5039715;28;20011;-77
2024/03/21 10:05:49;;;;;;;;;;;10.70;99.90;;;;;;5062874;28;19920;-76
2024/03/21 10:08:15;;;;;;;;;;;10.60;99.90;;;;;;5010944;28;19913;-77
2024/03/21 10:10:44;;;;;;;;;;;10.60;99.90;;;;;;5035458;28;20055;-77
2024/03/21 10:13:10;;;;;;;;;;;10.70;99.90;;;;;;5020511;28;19913;-77
2024/03/21 10:15:36;;;;;;;;;;;10.70;99.90;;;;;;5056882;28;19928;-77
2024/03/21 10:18:02;;;;;;;;;;;10.70;99.90;;;;;;5035123;28;19917;-77
2024/03/21 10:20:29;;;;;;;;;;;10.60;99.90;;;;;;5032228;28;19921;-77
2024/03/21 10:22:59;;;;;;;;;;;10.40;99.90;;;;;;5047436;28;19916;-77
2024/03/21 10:25:25;;;;;;;;;;;10.40;99.90;;;;;;5070866;28;19921;-77
2024/03/21 10:27:50;;;;;;;;;;;10.20;99.90;;;;;;5050621;28;19953;-77
2024/03/21 10:30:17;;;;;;;;;;;10.20;99.90;;;;;;5062437;28;19943;-77
2024/03/21 10:32:44;;;;;;;;;;;10.20;99.90;;;;;;5050745;28;19914;-77
2024/03/21 10:35:15;;;;;;;;;;;10.20;99.90;;;;;;5053919;28;19913;-77
2024/03/21 10:37:41;;;;;;;;;;;10.20;99.90;;;;;;5036808;28;19913;-77
2024/03/21 10:40:07;;;;;;;;;;;10.10;99.90;;;;;;5018641;28;20012;-76
2024/03/21 10:42:33;;;;;;;;;;;10.10;99.90;;;;;;5019843;28;19921;-75
2024/03/21 10:44:59;;;;;;;;;;;10.10;99.90;;;;;;5050156;28;19917;-77
2024/03/21 10:47:28;;;;;;;;;;;10.10;99.90;;;;;;5074583;28;20226;-77
2024/03/21 10:49:54;;;;;;;;;;;10.00;99.90;;;;;;5063136;28;19917;-77
2024/03/21 10:52:20;;;;;;;;;;;10.00;99.90;;;;;;5058663;28;19916;-78
2024/03/21 10:54:49;;;;;;;;;;;9.90;99.90;;;;;;5066691;28;19975;-77
2024/03/21 10:57:20;;;;;;;;;;;9.90;99.90;;;;;;5069927;28;19920;-77
2024/03/21 11:00:04;;;;;;;;;;;10.00;99.90;;;;;;5035751;28;19956;-78
2024/03/21 11:02:29;;;;;;;;;;;9.90;99.90;;;;;;5040490;28;19917;-77
2024/03/21 11:04:55;;;;;;;;;;;9.90;99.90;;;;;;5049136;28;19923;-77
2024/03/21 11:07:21;;;;;;;;;;;9.90;99.90;;;;;;5041252;28;19917;-78
2024/03/21 11:09:47;;;;;;;;;;;9.80;99.90;;;;;;5040894;28;19960;-77
2024/03/21 11:12:13;;;;;;;;;;;9.80;99.90;;;;;;5024738;28;19928;-77
2024/03/21 11:14:40;;;;;;;;;;;9.80;99.90;;;;;;5034053;28;19928;-77
2024/03/21 11:17:06;;;;;;;;;;;9.80;99.90;;;;;;5040561;28;19924;-77
2024/03/21 11:19:32;;;;;;;;;;;9.80;99.90;;;;;;5022183;28;20246;-76
2024/03/21 11:21:59;;;;;;;;;;;9.80;99.90;;;;;;5038839;28;20395;-77
2024/03/21 11:24:24;;;;;;;;;;;9.80;99.90;;;;;;5044318;28;20385;-77
2024/03/21 11:26:50;;;;;;;;;;;9.70;99.90;;;;;;5059449;28;19953;-77
2024/03/21 11:29:16;;;;;;;;;;;9.70;99.90;;;;;;5024909;28;20116;-76
2024/03/21 11:31:42;;;;;;;;;;;9.70;99.90;;;;;;5036224;28;20027;-77
2024/03/21 11:34:09;;;;;;;;;;;9.60;99.90;;;;;;5050153;28;20237;-77
2024/03/21 11:36:35;;;;;;;;;;;9.50;99.90;;;;;;5068371;28;19917;-77
2024/03/21 11:39:00;;;;;;;;;;;9.60;99.90;;;;;;5023352;28;20343;-77
2024/03/21 11:41:27;;;;;;;;;;;9.50;99.90;;;;;;5039838;28;20019;-77
2024/03/21 11:43:52;;;;;;;;;;;9.60;99.90;;;;;;5051946;28;19913;-77
2024/03/21 11:46:21;;;;;;;;;;;9.60;99.90;;;;;;5045110;28;19944;-77
2024/03/21 11:49:00;;;;;;;;;;;9.50;99.90;;;;;;5060677;28;20639;-77
2024/03/21 11:51:25;;;;;;;;;;;9.50;99.90;;;;;;5048930;28;20291;-77
2024/03/21 11:53:51;;;;;;;;;;;9.50;99.90;;;;;;5015878;28;19983;-78
2024/03/21 11:56:17;;;;;;;;;;;9.40;99.90;;;;;;5048816;28;20321;-78
2024/03/21 11:58:42;;;;;;;;;;;9.50;99.90;;;;;;5038563;28;19939;-78
2024/03/21 12:01:08;;;;;;;;;;;9.40;99.90;;;;;;5073548;28;19925;-77
2024/03/21 12:03:33;;;;;;;;;;;9.40;99.90;;;;;;5021544;28;20242;-77
2024/03/21 12:05:59;;;;;;;;;;;9.40;99.90;;;;;;5039838;28;19922;-77
2024/03/21 12:08:25;;;;;;;;;;;9.50;99.90;;;;;;5067543;28;19925;-77
2024/03/21 12:10:51;;;;;;;;;;;9.60;99.90;;;;;;5093069;28;19913;-77
2024/03/21 12:13:17;;;;;;;;;;;9.60;99.90;;;;;;5055793;28;20011;-78
2024/03/21 12:15:43;;;;;;;;;;;9.50;99.90;;;;;;5053767;28;19963;-78
2024/03/21 12:18:09;;;;;;;;;;;9.60;99.90;;;;;;5022737;28;19917;-77
2024/03/21 12:20:34;;;;;;;;;;;9.50;99.90;;;;;;5045673;28;20404;-78
2024/03/21 12:23:00;;;;;;;;;;;9.60;99.90;;;;;;5056305;28;20256;-78
2024/03/21 12:25:26;;;;;;;;;;;9.60;99.90;;;;;;5044440;28;21189;-78
2024/03/21 12:27:52;;;;;;;;;;;9.50;99.90;;;;;;5023042;28;19924;-78
2024/03/21 12:30:18;;;;;;;;;;;9.50;99.90;;;;;;5005393;28;19921;-78
2024/03/21 12:32:44;;;;;;;;;;;9.50;99.90;;;;;;5014018;28;20376;-76
2024/03/21 12:35:10;;;;;;;;;;;9.50;99.90;;;;;;5022825;28;20320;-78
2024/03/21 12:37:36;;;;;;;;;;;9.50;99.90;;;;;;5038369;28;20008;-77
2024/03/21 12:40:02;;;;;;;;;;;9.50;99.90;;;;;;5060231;28;19925;-77
2024/03/21 12:42:28;;;;;;;;;;;9.50;99.90;;;;;;5056549;28;19917;-77
2024/03/21 12:44:54;;;;;;;;;;;9.50;99.90;;;;;;5037430;28;19925;-77
2024/03/21 12:47:19;;;;;;;;;;;9.50;99.90;;;;;;5047013;28;19921;-75
2024/03/21 12:49:45;;;;;;;;;;;9.50;99.90;;;;;;5061817;28;19952;-76
2024/03/21 12:52:12;;;;;;;;;;;9.50;99.90;;;;;;5017976;28;19917;-75
2024/03/21 12:54:40;;;;;;;;;;;9.50;99.90;;;;;;5035173;28;19943;-76
2024/03/21 12:57:06;;;;;;;;;;;9.60;99.90;;;;;;5043106;28;19916;-76
2024/03/21 12:59:31;;;;;;;;;;;9.50;99.90;;;;;;5069551;28;19925;-75
2024/03/21 13:01:57;;;;;;;;;;;9.60;99.90;;;;;;5044172;28;19932;-75
2024/03/21 13:04:23;;;;;;;;;;;9.60;99.90;;;;;;5041797;28;19921;-75
2024/03/21 13:06:48;;;;;;;;;;;9.50;99.90;;;;;;5032957;28;19971;-75
2024/03/21 13:09:14;;;;;;;;;;;9.50;99.90;;;;;;5027370;28;19917;-78
2024/03/21 13:11:40;;;;;;;;;;;9.60;99.90;;;;;;5067194;28;20322;-77
2024/03/21 13:14:11;;;;;;;;;;;9.60;99.90;;;;;;5038277;28;19928;-76
2024/03/21 13:16:36;;;;;;;;;;;9.70;99.90;;;;;;5049141;28;19940;-75
2024/03/21 13:19:06;;;;;;;;;;;9.70;99.90;;;;;;5069789;28;20003;-76
2024/03/21 13:21:34;;;;;;;;;;;9.70;99.90;;;;;;5042184;28;19921;-76
2024/03/21 13:24:00;;;;;;;;;;;9.70;99.90;;;;;;5082818;28;19925;-77
2024/03/21 13:26:26;;;;;;;;;;;9.70;99.90;;;;;;5050697;28;19913;-77
2024/03/21 13:28:52;;;;;;;;;;;9.80;99.90;;;;;;5046708;28;20242;-76
2024/03/21 13:31:18;;;;;;;;;;;9.80;99.90;;;;;;5033192;28;19928;-75
2024/03/21 13:33:46;;;;;;;;;;;9.80;99.90;;;;;;5033784;28;20504;-75
2024/03/21 13:36:12;;;;;;;;;;;9.90;99.90;;;;;;5034331;28;19928;-76
2024/03/21 13:38:37;;;;;;;;;;;9.90;99.90;;;;;;5034333;28;19913;-77
2024/03/21 13:41:03;;;;;;;;;;;9.90;99.90;;;;;;5023064;28;19918;-75
2024/03/21 13:43:29;;;;;;;;;;;9.90;99.90;;;;;;5044174;28;20515;-76
2024/03/21 13:45:54;;;;;;;;;;;9.90;99.90;;;;;;5038008;28;19940;-76
2024/03/21 13:48:20;;;;;;;;;;;9.90;99.90;;;;;;5026509;28;20276;-75
2024/03/21 13:50:47;;;;;;;;;;;9.90;99.90;;;;;;5015785;28;19925;-76
2024/03/21 13:53:14;;;;;;;;;;;9.70;99.90;;;;;;5045599;28;19944;-76
2024/03/21 13:55:40;;;;;;;;;;;9.80;99.90;;;;;;5032787;28;19917;-76
2024/03/21 13:58:05;;;;;;;;;;;9.80;99.90;;;;;;5030649;28;19921;-75
2024/03/21 14:00:31;;;;;;;;;;;9.70;99.90;;;;;;5031892;28;19926;-76
2024/03/21 14:02:57;;;;;;;;;;;9.70;99.90;;;;;;5057010;28;20496;-76
2024/03/21 14:05:25;;;;;;;;;;;9.80;99.90;;;;;;5049055;28;19921;-76
2024/03/21 14:07:51;;;;;;;;;;;9.80;99.90;;;;;;5035774;28;19940;-76
2024/03/21 14:10:17;;;;;;;;;;;9.80;99.90;;;;;;5033135;28;20000;-76
2024/03/21 14:12:43;;;;;;;;;;;9.80;99.90;;;;;;5045202;28;20015;-77
2024/03/21 14:15:08;;;;;;;;;;;9.80;99.90;;;;;;5081640;28;19970;-76
2024/03/21 14:17:34;;;;;;;;;;;9.80;99.90;;;;;;5031845;28;20354;-76